Map

Track Data

SID SEASON NUMBER BASIN SUBBASIN NAME ISO_TIME NATURE LAT LON WMO_WIND WMO_PRES WMO_AGENCY TRACK_TYPE DIST2LAND LANDFALL IFLAG USA_AGENCY USA_ATCF_ID USA_LAT USA_LON USA_RECORD USA_STATUS USA_WIND USA_PRES USA_SSHS USA_R34_NE USA_R34_SE USA_R34_SW USA_R34_NW USA_R50_NE USA_R50_SE USA_R50_SW USA_R50_NW USA_R64_NE USA_R64_SE USA_R64_SW USA_R64_NW USA_POCI USA_ROCI USA_RMW USA_EYE TOKYO_LAT TOKYO_LON TOKYO_GRADE TOKYO_WIND TOKYO_PRES TOKYO_R50_DIR TOKYO_R50_LONG TOKYO_R50_SHORT TOKYO_R30_DIR TOKYO_R30_LONG TOKYO_R30_SHORT TOKYO_LAND CMA_LAT CMA_LON CMA_CAT CMA_WIND CMA_PRES HKO_LAT HKO_LON HKO_CAT HKO_WIND HKO_PRES NEWDELHI_LAT NEWDELHI_LON NEWDELHI_GRADE NEWDELHI_WIND NEWDELHI_PRES NEWDELHI_CI NEWDELHI_DP NEWDELHI_POCI REUNION_LAT REUNION_LON REUNION_TYPE REUNION_WIND REUNION_PRES REUNION_TNUM REUNION_CI REUNION_RMW REUNION_R34_NE REUNION_R34_SE REUNION_R34_SW REUNION_R34_NW REUNION_R50_NE REUNION_R50_SE REUNION_R50_SW REUNION_R50_NW REUNION_R64_NE REUNION_R64_SE REUNION_R64_SW REUNION_R64_NW BOM_LAT BOM_LON BOM_TYPE BOM_WIND BOM_PRES BOM_TNUM BOM_CI BOM_RMW BOM_R34_NE BOM_R34_SE BOM_R34_SW BOM_R34_NW BOM_R50_NE BOM_R50_SE BOM_R50_SW BOM_R50_NW BOM_R64_NE BOM_R64_SE BOM_R64_SW BOM_R64_NW BOM_ROCI BOM_POCI BOM_EYE BOM_POS_METHOD BOM_PRES_METHOD NADI_LAT NADI_LON NADI_CAT NADI_WIND NADI_PRES WELLINGTON_LAT WELLINGTON_LON WELLINGTON_WIND WELLINGTON_PRES DS824_LAT DS824_LON DS824_STAGE DS824_WIND DS824_PRES TD9636_LAT TD9636_LON TD9636_STAGE TD9636_WIND TD9636_PRES TD9635_LAT TD9635_LON TD9635_WIND TD9635_PRES TD9635_ROCI NEUMANN_LAT NEUMANN_LON NEUMANN_CLASS NEUMANN_WIND NEUMANN_PRES MLC_LAT MLC_LON MLC_CLASS MLC_WIND MLC_PRES USA_GUST BOM_GUST BOM_GUST_PER REUNION_GUST REUNION_GUST_PER USA_SEAHGT USA_SEARAD_NE USA_SEARAD_SE USA_SEARAD_SW USA_SEARAD_NW STORM_SPEED STORM_DIR
1908266N13314 1908 41 NA NA NOT_NAMED 1908-09-21 12:00:00 TS 12.5000 -46.0000 35 hurdat_atl main 1087 1059 O_____________ hurdat_atl AL081908 12.5000 -46.0000 TS 35 0 12 280
1908266N13314 1908 41 NA NA NOT_NAMED 1908-09-21 15:00:00 TS 12.6028 -46.6124 main 1059 1028 P_____________ AL081908 12.6028 -46.6124 TS 35 0 12 280
1908266N13314 1908 41 NA NA NOT_NAMED 1908-09-21 18:00:00 TS 12.7000 -47.2000 35 hurdat_atl main 1028 1007 O_____________ hurdat_atl AL081908 12.7000 -47.2000 TS 35 0 11 280
1908266N13314 1908 41 NA NA NOT_NAMED 1908-09-21 21:00:00 TS 12.7923 -47.7501 main 1001 983 P_____________ AL081908 12.7923 -47.7501 TS 35 0 11 281
1908266N13314 1908 41 NA NA NOT_NAMED 1908-09-22 00:00:00 TS 12.9000 -48.3000 35 hurdat_atl main 983 962 O_____________ hurdat_atl AL081908 12.9000 -48.3000 TS 35 0 11 283
1908266N13314 1908 41 NA NA NOT_NAMED 1908-09-22 03:00:00 TS 13.0424 -48.8925 main 962 954 P_____________ AL081908 13.0424 -48.8925 TS 35 0 12 284
1908266N13314 1908 41 NA NA NOT_NAMED 1908-09-22 06:00:00 TS 13.2000 -49.5000 35 hurdat_atl main 956 942 O_____________ hurdat_atl AL081908 13.2000 -49.5000 TS 35 0 12 285
1908266N13314 1908 41 NA NA NOT_NAMED 1908-09-22 09:00:00 TS 13.3499 -50.1076 main 942 932 P_____________ AL081908 13.3499 -50.1076 TS 35 0 12 284
1908266N13314 1908 41 NA NA NOT_NAMED 1908-09-22 12:00:00 TS 13.5000 -50.7000 35 hurdat_atl main 933 923 O_____________ hurdat_atl AL081908 13.5000 -50.7000 TS 35 0 12 286
1908266N13314 1908 41 NA NA NOT_NAMED 1908-09-22 15:00:00 TS 13.6648 -51.2500 main 933 918 P_____________ AL081908 13.6648 -51.2500 TS 35 0 11 286
1908266N13314 1908 41 NA NA NOT_NAMED 1908-09-22 18:00:00 TS 13.8000 -51.8000 35 hurdat_atl main 923 911 O_____________ hurdat_atl AL081908 13.8000 -51.8000 TS 35 0 11 280
1908266N13314 1908 41 NA NA NOT_NAMED 1908-09-22 21:00:00 TS 13.8649 -52.3926 main 917 905 P_____________ AL081908 13.8649 -52.3926 TS 35 0 12 275
1908266N13314 1908 41 NA NA NOT_NAMED 1908-09-23 00:00:00 TS 13.9000 -53.0000 35 hurdat_atl main 905 880 O_____________ hurdat_atl AL081908 13.9000 -53.0000 TS 35 0 12 273
1908266N13314 1908 41 NA NA NOT_NAMED 1908-09-23 03:00:00 TS 13.9349 -53.6076 main 880 826 P_____________ AL081908 13.9349 -53.6076 TS 35 0 12 275
1908266N13314 1908 41 NA NA NOT_NAMED 1908-09-23 06:00:00 TS 14.0000 -54.2000 35 hurdat_atl main 826 783 O_____________ hurdat_atl AL081908 14.0000 -54.2000 TS 35 0 11 280
1908266N13314 1908 41 NA NA NOT_NAMED 1908-09-23 09:00:00 TS 14.1424 -54.7649 main 773 738 P_____________ AL081908 14.1424 -54.7649 TS 37 0 11 286
1908266N13314 1908 41 NA NA NOT_NAMED 1908-09-23 12:00:00 TS 14.3000 -55.3000 40 hurdat_atl main 738 700 O_____________ hurdat_atl AL081908 14.3000 -55.3000 TS 40 0 11 284
1908266N13314 1908 41 NA NA NOT_NAMED 1908-09-23 15:00:00 TS 14.3999 -55.8151 main 700 664 P_____________ AL081908 14.3999 -55.8151 TS 40 0 10 282
1908266N13314 1908 41 NA NA NOT_NAMED 1908-09-23 18:00:00 TS 14.5000 -56.3000 40 hurdat_atl main 664 639 O_____________ hurdat_atl AL081908 14.5000 -56.3000 TS 40 0 10 285
1908266N13314 1908 41 NA NA NOT_NAMED 1908-09-23 21:00:00 TS 14.6499 -56.7724 main 631 617 P_____________ AL081908 14.6499 -56.7724 TS 40 0 9 289
1908266N13314 1908 41 NA NA NOT_NAMED 1908-09-24 00:00:00 TS 14.8000 -57.2000 40 hurdat_atl main 617 602 O_____________ hurdat_atl AL081908 14.8000 -57.2000 TS 40 0 8 288
1908266N13314 1908 41 NA NA NOT_NAMED 1908-09-24 03:00:00 TS 14.8998 -57.5576 main 597 587 P_____________ AL081908 14.8998 -57.5576 TS 40 0 7 286
1908266N13314 1908 41 NA NA NOT_NAMED 1908-09-24 06:00:00 TS 15.0000 -57.9000 40 hurdat_atl main 587 573 O_____________ hurdat_atl AL081908 15.0000 -57.9000 TS 40 0 8 289
1908266N13314 1908 41 NA NA NOT_NAMED 1908-09-24 09:00:00 TS 15.1500 -58.2999 main 582 572 P_____________ AL081908 15.1500 -58.2999 TS 42 0 8 291
1908266N13314 1908 41 NA NA NOT_NAMED 1908-09-24 12:00:00 TS 15.3000 -58.7000 45 hurdat_atl main 572 567 O_____________ hurdat_atl AL081908 15.3000 -58.7000 TS 45 0 8 290
1908266N13314 1908 41 NA NA NOT_NAMED 1908-09-24 15:00:00 TS 15.4073 -59.0426 main 569 561 P_____________ AL081908 15.4073 -59.0426 TS 47 0 7 286
1908266N13314 1908 41 NA NA NOT_NAMED 1908-09-24 18:00:00 TS 15.5000 -59.4000 50 hurdat_atl main 564 558 O_____________ hurdat_atl AL081908 15.5000 -59.4000 TS 50 0 8 284
1908266N13314 1908 41 NA NA NOT_NAMED 1908-09-24 21:00:00 TS 15.6076 -59.8500 main 563 559 P_____________ AL081908 15.6076 -59.8500 TS 52 0 9 283
1908266N13314 1908 41 NA CS NOT_NAMED 1908-09-25 00:00:00 TS 15.7000 -60.3000 55 hurdat_atl main 564 561 O_____________ hurdat_atl AL081908 15.7000 -60.3000 TS 55 0 8 280
1908266N13314 1908 41 NA CS NOT_NAMED 1908-09-25 03:00:00 TS 15.7499 -60.6651 main 560 558 P_____________ AL081908 15.7499 -60.6651 TS 57 0 7 278
1908266N13314 1908 41 NA CS NOT_NAMED 1908-09-25 06:00:00 TS 15.8000 -61.0000 60 hurdat_atl main 558 524 O_____________ hurdat_atl AL081908 15.8000 -61.0000 TS 60 0 7 283
1908266N13314 1908 41 NA CS NOT_NAMED 1908-09-25 09:00:00 TS 15.8923 -61.3275 main 524 482 P_____________ AL081908 15.8923 -61.3275 TS 62 0 7 287
1908266N13314 1908 41 NA CS NOT_NAMED 1908-09-25 12:00:00 TS 16.0000 -61.7000 65 hurdat_atl main 482 439 O_____________ hurdat_atl AL081908 16.0000 -61.7000 HU 65 1 8 285
1908266N13314 1908 41 NA CS NOT_NAMED 1908-09-25 15:00:00 TS 16.0998 -62.1476 main 439 380 P_____________ AL081908 16.0998 -62.1476 HU 67 1 10 282
1908266N13314 1908 41 NA CS NOT_NAMED 1908-09-25 18:00:00 TS 16.2000 -62.7000 70 hurdat_atl main 380 315 O_____________ hurdat_atl AL081908 16.2000 -62.7000 HU 70 1 12 280
1908266N13314 1908 41 NA CS NOT_NAMED 1908-09-25 21:00:00 TS 16.3078 -63.3999 main 315 254 P_____________ AL081908 16.3078 -63.3999 HU 72 1 14 278
1908266N13314 1908 41 NA CS NOT_NAMED 1908-09-26 00:00:00 TS 16.4000 -64.1000 75 hurdat_atl main 254 210 O_____________ hurdat_atl AL081908 16.4000 -64.1000 HU 75 1 12 278
1908266N13314 1908 41 NA CS NOT_NAMED 1908-09-26 03:00:00 TS 16.4645 -64.6151 main 210 183 P_____________ AL081908 16.4645 -64.6151 HU 75 1 10 276
1908266N13314 1908 41 NA CS NOT_NAMED 1908-09-26 06:00:00 TS 16.5000 -65.1000 75 hurdat_atl main 183 165 O_____________ hurdat_atl AL081908 16.5000 -65.1000 HU 75 1 10 272
1908266N13314 1908 41 NA CS NOT_NAMED 1908-09-26 09:00:00 TS 16.5075 -65.6926 main 165 156 P_____________ AL081908 16.5075 -65.6926 HU 75 1 12 270
1908266N13314 1908 41 NA CS NOT_NAMED 1908-09-26 12:00:00 TS 16.5000 -66.3000 75 hurdat_atl main 157 157 O_____________ hurdat_atl AL081908 16.5000 -66.3000 HU 75 1 11 269
1908266N13314 1908 41 NA CS NOT_NAMED 1908-09-26 15:00:00 TS 16.4848 -66.8576 main 156 156 P_____________ AL081908 16.4848 -66.8576 HU 75 1 11 270
1908266N13314 1908 41 NA CS NOT_NAMED 1908-09-26 18:00:00 TS 16.5000 -67.4000 75 hurdat_atl main 158 154 O_____________ hurdat_atl AL081908 16.5000 -67.4000 HU 75 1 11 276
1908266N13314 1908 41 NA CS NOT_NAMED 1908-09-26 21:00:00 TS 16.5924 -67.9574 main 168 168 P_____________ AL081908 16.5924 -67.9574 HU 75 1 11 281
1908266N13314 1908 41 NA CS NOT_NAMED 1908-09-27 00:00:00 TS 16.7000 -68.5000 75 hurdat_atl main 168 167 O_____________ hurdat_atl AL081908 16.7000 -68.5000 HU 75 1 10 279
1908266N13314 1908 41 NA CS NOT_NAMED 1908-09-27 03:00:00 TS 16.7498 -69.0077 main 169 158 P_____________ AL081908 16.7498 -69.0077 HU 75 1 10 276
1908266N13314 1908 41 NA CS NOT_NAMED 1908-09-27 06:00:00 TS 16.8000 -69.5000 75 hurdat_atl main 173 147 O_____________ hurdat_atl AL081908 16.8000 -69.5000 HU 75 1 10 278
1908266N13314 1908 41 NA CS NOT_NAMED 1908-09-27 09:00:00 TS 16.8851 -70.0300 main 147 116 P_____________ AL081908 16.8851 -70.0300 HU 75 1 10 282
1908266N13314 1908 41 NA CS NOT_NAMED 1908-09-27 12:00:00 TS 17.0000 -70.5000 75 hurdat_atl main 116 84 O_____________ hurdat_atl AL081908 17.0000 -70.5000 HU 75 1 8 288
1908266N13314 1908 41 NA CS NOT_NAMED 1908-09-27 15:00:00 TS 17.1423 -70.8375 main 84 46 P_____________ AL081908 17.1423 -70.8375 HU 75 1 6 298
1908266N13314 1908 41 NA CS NOT_NAMED 1908-09-27 18:00:00 TS 17.3000 -71.1000 75 hurdat_atl main 46 24 O_____________ hurdat_atl AL081908 17.3000 -71.1000 HU 75 1 6 301
1908266N13314 1908 41 NA CS NOT_NAMED 1908-09-27 21:00:00 TS 17.4349 -71.3501 main 22 10 P_____________ AL081908 17.4349 -71.3501 HU 72 1 6 302
1908266N13314 1908 41 NA CS NOT_NAMED 1908-09-28 00:00:00 TS 17.6000 -71.6000 70 hurdat_atl main 21 15 O_____________ hurdat_atl AL081908 17.6000 -71.6000 HU 70 1 7 308
1908266N13314 1908 41 NA CS NOT_NAMED 1908-09-28 03:00:00 TS 17.8425 -71.8999 main 30 11 P_____________ AL081908 17.8425 -71.8999 HU 70 1 8 311
1908266N13314 1908 41 NA CS NOT_NAMED 1908-09-28 06:00:00 TS 18.1000 -72.2000 70 hurdat_atl main 11 0 O_____________ hurdat_atl AL081908 18.1000 -72.2000 HU 70 1 7 312
1908266N13314 1908 41 NA NA NOT_NAMED 1908-09-28 09:00:00 TS 18.3225 -72.4650 main 0 0 P_____________ AL081908 18.3225 -72.4650 HU 67 1 6 310
1908266N13314 1908 41 NA CS NOT_NAMED 1908-09-28 12:00:00 TS 18.5000 -72.7000 65 hurdat_atl main 10 10 O_____________ hurdat_atl AL081908 18.5000 -72.7000 HU 65 1 5 304
1908266N13314 1908 41 NA CS NOT_NAMED 1908-09-28 15:00:00 TS 18.5999 -72.8927 main 22 22 P_____________ AL081908 18.5999 -72.8927 HU 62 0 4 298
1908266N13314 1908 41 NA CS NOT_NAMED 1908-09-28 18:00:00 TS 18.7000 -73.1000 60 hurdat_atl main 33 33 O_____________ hurdat_atl AL081908 18.7000 -73.1000 TS 60 0 5 300
1908266N13314 1908 41 NA CS NOT_NAMED 1908-09-28 21:00:00 TS 18.8701 -73.3925 main 54 49 P_____________ AL081908 18.8701 -73.3925 TS 62 0 7 305
1908266N13314 1908 41 NA CS NOT_NAMED 1908-09-29 00:00:00 TS 19.1000 -73.7000 65 hurdat_atl main 64 53 O_____________ hurdat_atl AL081908 19.1000 -73.7000 HU 65 1 8 314
1908266N13314 1908 41 NA CS NOT_NAMED 1908-09-29 03:00:00 TS 19.4075 -73.9724 main 62 45 P_____________ AL081908 19.4075 -73.9724 HU 67 1 8 322
1908266N13314 1908 41 NA CS NOT_NAMED 1908-09-29 06:00:00 TS 19.7000 -74.2000 70 hurdat_atl main 45 22 O_____________ hurdat_atl AL081908 19.7000 -74.2000 HU 70 1 6 322
1908266N13314 1908 41 NA CS NOT_NAMED 1908-09-29 09:00:00 TS 19.8649 -74.3502 main 22 11 P_____________ AL081908 19.8649 -74.3502 HU 72 1 4 317
1908266N13314 1908 41 NA CS NOT_NAMED 1908-09-29 12:00:00 TS 20.0000 -74.5000 75 hurdat_atl main 11 0 O_____________ hurdat_atl AL081908 20.0000 -74.5000 HU 75 1 5 310
1908266N13314 1908 41 NA NA NOT_NAMED 1908-09-29 15:00:00 TS 20.1775 -74.7425 main 0 0 P_____________ AL081908 20.1775 -74.7425 HU 70 1 6 310
1908266N13314 1908 41 NA NA NOT_NAMED 1908-09-29 18:00:00 TS 20.4000 -75.0000 65 hurdat_atl main 0 0 O_____________ hurdat_atl AL081908 20.4000 -75.0000 HU 65 1 7 321
1908266N13314 1908 41 NA NA NOT_NAMED 1908-09-29 21:00:00 TS 20.6999 -75.2000 main 11 11 P_____________ AL081908 20.6999 -75.2000 HU 67 1 7 328
1908266N13314 1908 41 NA NA NOT_NAMED 1908-09-30 00:00:00 TS 21.0000 -75.4000 70 hurdat_atl main 20 11 O_____________ hurdat_atl AL081908 21.0000 -75.4000 HU 70 1 7 320
1908266N13314 1908 41 NA NA NOT_NAMED 1908-09-30 03:00:00 TS 21.2000 -75.6501 main 22 22 P_____________ AL081908 21.2000 -75.6501 HU 72 1 6 311
1908266N13314 1908 41 NA NA NOT_NAMED 1908-09-30 06:00:00 TS 21.4000 -75.9000 75 hurdat_atl main 35 35 O_____________ hurdat_atl AL081908 21.4000 -75.9000 HU 75 1 7 319
1908266N13314 1908 41 NA NA NOT_NAMED 1908-09-30 09:00:00 TS 21.6924 -76.1075 main 56 56 P_____________ AL081908 21.6924 -76.1075 HU 77 1 7 328
1908266N13314 1908 41 NA NA NOT_NAMED 1908-09-30 12:00:00 TS 22.0000 -76.3000 80 hurdat_atl main 88 83 O_____________ hurdat_atl AL081908 22.0000 -76.3000 HU 80 1 7 327
1908266N13314 1908 41 NA NA NOT_NAMED 1908-09-30 15:00:00 TS 22.2424 -76.4927 main 83 83 P_____________ AL081908 22.2424 -76.4927 HU 82 1 6 323
1908266N13314 1908 41 NA NA NOT_NAMED 1908-09-30 18:00:00 TS 22.5000 -76.7000 85 hurdat_atl main 98 98 O_____________ hurdat_atl AL081908 22.5000 -76.7000 HU 85 2 7 325
1908266N13314 1908 41 NA NA NOT_NAMED 1908-09-30 21:00:00 TS 22.8350 -76.9425 main 124 124 P_____________ AL081908 22.8350 -76.9425 HU 87 2 8 327
1908266N13314 1908 41 NA NA NOT_NAMED 1908-10-01 00:00:00 TS 23.2000 -77.2000 90 hurdat_atl main 138 93 O_____________ hurdat_atl AL081908 23.2000 -77.2000 HU 90 2 9 326
1908266N13314 1908 41 NA NA NOT_NAMED 1908-10-01 03:00:00 TS 23.5425 -77.4650 main 93 45 P_____________ AL081908 23.5425 -77.4650 HU 92 2 8 327
1908266N13314 1908 41 NA NA NOT_NAMED 1908-10-01 06:00:00 TS 23.9000 -77.7000 95 hurdat_atl main 45 10 O_____________ hurdat_atl AL081908 23.9000 -77.7000 HU 95 2 8 331
1908266N13314 1908 41 NA NA NOT_NAMED 1908-10-01 09:00:00 TS 24.2625 -77.9023 main 0 0 P_____________ AL081908 24.2625 -77.9023 HU 95 2 8 341
1908266N13314 1908 41 NA NA NOT_NAMED 1908-10-01 12:00:00 TS 24.7000 -78.0000 95 hurdat_atl main 0 0 O_____________ hurdat_atl AL081908 24.7000 -78.0000 HU 95 2 10 354
1908266N13314 1908 41 NA NA NOT_NAMED 1908-10-01 15:00:00 TS 25.2920 -78.0194 main 22 22 P_____________ AL081908 25.2920 -78.0194 HU 95 2 12 9
1908266N13314 1908 41 NA NA NOT_NAMED 1908-10-01 18:00:00 TS 25.9000 -77.8000 95 hurdat_atl main 91 91 O_____________ hurdat_atl AL081908 25.9000 -77.8000 HU 95 2 13 31
1908266N13314 1908 41 NA NA NOT_NAMED 1908-10-01 21:00:00 TS 26.3872 -77.2776 main 161 161 P_____________ AL081908 26.3872 -77.2776 HU 95 2 15 52
1908266N13314 1908 41 NA NA NOT_NAMED 1908-10-02 00:00:00 TS 26.8000 -76.5000 95 hurdat_atl main 241 241 O_____________ hurdat_atl AL081908 26.8000 -76.5000 HU 95 2 17 62
1908266N13314 1908 41 NA NA NOT_NAMED 1908-10-02 03:00:00 TS 27.1806 -75.5726 main 335 335 P_____________ AL081908 27.1806 -75.5726 HU 95 2 18 68
1908266N13314 1908 41 NA NA NOT_NAMED 1908-10-02 06:00:00 TS 27.5000 -74.6000 95 hurdat_atl main 431 431 O_____________ hurdat_atl AL081908 27.5000 -74.6000 HU 95 2 17 70
1908266N13314 1908 41 NA NA NOT_NAMED 1908-10-02 09:00:00 TS 27.7724 -73.7246 main 523 523 P_____________ AL081908 27.7724 -73.7246 HU 95 2 15 71
1908266N13314 1908 41 NA NA NOT_NAMED 1908-10-02 12:00:00 TS 28.0000 -73.0000 95 hurdat_atl main 593 593 O_____________ hurdat_atl AL081908 28.0000 -73.0000 HU 95 2 12 68
1908266N13314 1908 41 NA NA NOT_NAMED 1908-10-02 15:00:00 TS 28.2144 -72.4672 main 646 646 P_____________ AL081908 28.2144 -72.4672 HU 95 2 9 63
1908266N13314 1908 41 NA NA NOT_NAMED 1908-10-02 18:00:00 TS 28.4000 -72.1000 95 hurdat_atl main 691 691 O_____________ hurdat_atl AL081908 28.4000 -72.1000 HU 95 2 7 61
1908266N13314 1908 41 NA NA NOT_NAMED 1908-10-02 21:00:00 TS 28.5347 -71.8196 main 722 722 P_____________ AL081908 28.5347 -71.8196 HU 95 2 5 56
1908266N13314 1908 41 NA NA NOT_NAMED 1908-10-03 00:00:00 TS 28.7000 -71.6000 95 hurdat_atl main 750 750 O_____________ hurdat_atl AL081908 28.7000 -71.6000 HU 95 2 6 47
1908266N13314 1908 41 NA NA NOT_NAMED 1908-10-03 03:00:00 TS 28.9701 -71.2831 main 792 787 P_____________ AL081908 28.9701 -71.2831 HU 92 2 7 36
1908266N13314 1908 41 NA NA NOT_NAMED 1908-10-03 06:00:00 TS 29.3000 -71.1000 90 hurdat_atl main 787 747 O_____________ hurdat_atl AL081908 29.3000 -71.1000 HU 90 2 8 4
1908266N13314 1908 41 NA NA NOT_NAMED 1908-10-03 09:00:00 TS 29.7175 -71.2240 main 747 703 P_____________ AL081908 29.7175 -71.2240 HU 87 2 8 334
1908266N13314 1908 41 NA NA NOT_NAMED 1908-10-03 12:00:00 TS 30.0000 -71.5000 85 hurdat_atl main 703 684 O_____________ hurdat_atl AL081908 30.0000 -71.5000 HU 85 2 5 295
1908266N13314 1908 41 NA NA NOT_NAMED 1908-10-03 15:00:00 TS 29.9401 -71.7730 main 693 687 P_____________ AL081908 29.9401 -71.7730 HU 82 1 5 235
1908266N13314 1908 41 NA NA NOT_NAMED 1908-10-03 18:00:00 TS 29.7000 -72.0000 80 hurdat_atl main 699 699 O_____________ hurdat_atl AL081908 29.7000 -72.0000 HU 80 1 6 212
1908266N13314 1908 41 NA NA NOT_NAMED 1908-10-03 21:00:00 TS 29.4573 -72.1251 main 712 712 P_____________ AL081908 29.4573 -72.1251 HU 77 1 5 190
1908266N13314 1908 41 NA NA NOT_NAMED 1908-10-04 00:00:00 TS 29.2000 -72.1000 75 hurdat_atl main 740 734 O_____________ hurdat_atl AL081908 29.2000 -72.1000 HU 75 1 5 157
1908266N13314 1908 41 NA NA NOT_NAMED 1908-10-04 03:00:00 TS 28.9851 -71.9023 main 744 744 P_____________ AL081908 28.9851 -71.9023 HU 72 1 6 132
1908266N13314 1908 41 NA NA NOT_NAMED 1908-10-04 06:00:00 TS 28.8000 -71.6000 70 hurdat_atl main 756 756 O_____________ hurdat_atl AL081908 28.8000 -71.6000 HU 70 1 6 129
1908266N13314 1908 41 NA NA NOT_NAMED 1908-10-04 09:00:00 TS 28.5822 -71.3370 main 770 765 P_____________ AL081908 28.5822 -71.3370 HU 70 1 6 120
1908266N13314 1908 41 NA NA NOT_NAMED 1908-10-04 12:00:00 TS 28.5000 -71.0000 70 hurdat_atl main 790 790 O_____________ hurdat_atl AL081908 28.5000 -71.0000 HU 70 1 7 83
1908266N13314 1908 41 NA NA NOT_NAMED 1908-10-04 15:00:00 TS 28.6753 -70.5155 main 844 844 P_____________ AL081908 28.6753 -70.5155 HU 70 1 10 60
1908266N13314 1908 41 NA NA NOT_NAMED 1908-10-04 18:00:00 TS 29.0000 -70.0000 70 hurdat_atl main 882 878 O_____________ hurdat_atl AL081908 29.0000 -70.0000 HU 70 1 11 50
1908266N13314 1908 41 NA NA NOT_NAMED 1908-10-04 21:00:00 TS 29.3572 -69.5850 main 877 875 P_____________ AL081908 29.3572 -69.5850 HU 70 1 10 45
1908266N13314 1908 41 NA NA NOT_NAMED 1908-10-05 00:00:00 TS 29.7000 -69.2000 70 hurdat_atl main 882 882 O_____________ hurdat_atl AL081908 29.7000 -69.2000 HU 70 1 9 50
1908266N13314 1908 41 NA NA NOT_NAMED 1908-10-05 03:00:00 TS 29.9223 -68.8070 main 896 896 P_____________ AL081908 29.9223 -68.8070 HU 70 1 8 60
1908266N13314 1908 41 NA NA NOT_NAMED 1908-10-05 06:00:00 TS 30.1000 -68.4000 70 hurdat_atl main 912 912 O_____________ hurdat_atl AL081908 30.1000 -68.4000 HU 70 1 8 62
1908266N13314 1908 41 NA NA NOT_NAMED 1908-10-05 09:00:00 TS 30.3071 -67.9873 main 928 927 P_____________ AL081908 30.3071 -67.9873 HU 70 1 9 63
1908266N13314 1908 41 NA NA NOT_NAMED 1908-10-05 12:00:00 TS 30.5000 -67.5000 70 hurdat_atl main 949 949 O_____________ hurdat_atl AL081908 30.5000 -67.5000 HU 70 1 10 70
1908266N13314 1908 41 NA NA NOT_NAMED 1908-10-05 15:00:00 TS 30.6577 -66.8723 main 979 979 P_____________ AL081908 30.6577 -66.8723 HU 70 1 12 75
1908266N13314 1908 41 NA NA NOT_NAMED 1908-10-05 18:00:00 TS 30.8000 -66.2000 70 hurdat_atl main 1026 1026 O_____________ hurdat_atl AL081908 30.8000 -66.2000 HU 70 1 11 75
1908266N13314 1908 41 NA NA NOT_NAMED 1908-10-05 21:00:00 TS 30.9571 -65.5924 main 1061 1061 P_____________ AL081908 30.9571 -65.5924 HU 70 1 11 74
1908266N13314 1908 41 NA NA NOT_NAMED 1908-10-06 00:00:00 TS 31.1000 -65.0000 70 hurdat_atl main 1103 1103 O_____________ hurdat_atl AL081908 31.1000 -65.0000 HU 70 1 11 76
1908266N13314 1908 41 NA NA NOT_NAMED 1908-10-06 03:00:00 TS 31.2073 -64.3923 main 1147 1147 P_____________ AL081908 31.2073 -64.3923 HU 70 1 10 79
1908266N13314 1908 41 NA NA NOT_NAMED 1908-10-06 06:00:00 TS 31.3000 -63.8000 70 hurdat_atl main 1191 1191 O_____________ hurdat_atl AL081908 31.3000 -63.8000 HU 70 1 10 79
1908266N13314 1908 41 NA NA NOT_NAMED 1908-10-06 09:00:00 TS 31.3919 -63.2646 main 1228 1228 P_____________ AL081908 31.3919 -63.2646 HU 67 1 10 78
1908266N13314 1908 41 NA NA NOT_NAMED 1908-10-06 12:00:00 TS 31.5000 -62.7000 65 hurdat_atl main 1274 1274 O_____________ hurdat_atl AL081908 31.5000 -62.7000 HU 65 1 11 76
1908266N13314 1908 41 NA NA NOT_NAMED 1908-10-06 15:00:00 TS 31.6501 -62.0152 main 1320 1320 P_____________ AL081908 31.6501 -62.0152 HU 60 0 12 76
1908266N13314 1908 41 NA NA NOT_NAMED 1908-10-06 18:00:00 TS 31.8000 -61.3000 55 hurdat_atl main 1345 1345 O_____________ hurdat_atl AL081908 31.8000 -61.3000 TS 55 0 12 78
1908266N13314 1908 41 NA NA NOT_NAMED 1908-10-06 21:00:00 TS 31.8995 -60.6420 main 1355 1352 P_____________ AL081908 31.8995 -60.6420 TS 50 0 11 80
1908266N13314 1908 41 NA NA NOT_NAMED 1908-10-07 00:00:00 TS 32.0000 -60.0000 45 hurdat_atl main 1361 1360 O_____________ hurdat_atl AL081908 32.0000 -60.0000 TS 45 0 11 77
1908266N13314 1908 41 NA NA NOT_NAMED 1908-10-07 03:00:00 TS 32.1498 -59.3426 main 1373 1362 P_____________ AL081908 32.1498 -59.3426 TS 42 0 11 75
1908266N13314 1908 41 NA NA NOT_NAMED 1908-10-07 06:00:00 ET 32.3000 -58.7000 40 hurdat_atl main 1373 1373 O_____________ hurdat_atl AL081908 32.3000 -58.7000 EX 40 -4 11 77
1908266N13314 1908 41 NA NA NOT_NAMED 1908-10-07 09:00:00 ET 32.3994 -58.1070 main 1385 1385 P_____________ AL081908 32.3994 -58.1070 EX 40 -4 10 79
1908266N13314 1908 41 NA NA NOT_NAMED 1908-10-07 12:00:00 ET 32.5000 -57.5000 40 hurdat_atl main 1400 1400 O_____________ hurdat_atl AL081908 32.5000 -57.5000 EX 40 -4 11 78
1908266N13314 1908 41 NA NA NOT_NAMED 1908-10-07 15:00:00 ET 32.6385 -56.8233 main 1420 1415 P_____________ AL081908 32.6385 -56.8233 EX 40 -4 12 76
1908266N13314 1908 41 NA NA NOT_NAMED 1908-10-07 18:00:00 ET 32.8000 -56.1000 40 hurdat_atl main 1434 O_____________ hurdat_atl AL081908 32.8000 -56.1000 EX 40 -4 13 75

About IBTrACS Database

This database is a web-friendly format of International Best Track Archive for Climate Stewardship (IBTrACS), a global best track data archive curated by NOAA dating back to 1842.

Updated: 2021-10-21